Time;durP1;ratioP1;P1;durP2;ratioP2;P2;SDS_P1;SDS_P2;PMS_P1;PMS_P2;Temp;Humidity;BMP_temperature;BMP_pressure;BME280_temperature;BME280_humidity;BME280_pressure;Samples;Min_cycle;Max_cycle;Signal;HPM_P1;HPM_P2
2023/02/04 00:00:22;;;;;;;2.00;0.98;;;9.10;86.60;;;;;;5024580;28;20030;-67
2023/02/04 00:02:51;;;;;;;3.30;1.25;;;9.20;86.70;;;;;;5024664;28;20571;-67
2023/02/04 00:05:17;;;;;;;1.27;0.70;;;9.20;86.70;;;;;;5026988;28;20663;-67
2023/02/04 00:07:43;;;;;;;2.60;0.88;;;9.10;86.70;;;;;;5025285;28;20087;-67
2023/02/04 00:10:09;;;;;;;1.58;0.73;;;9.10;86.70;;;;;;5022536;28;20017;-67
2023/02/04 00:12:35;;;;;;;1.17;0.63;;;9.20;86.90;;;;;;5026284;28;20057;-68
2023/02/04 00:15:01;;;;;;;5.32;1.10;;;9.20;86.90;;;;;;5029986;28;20029;-68
2023/02/04 00:17:26;;;;;;;4.90;0.90;;;9.10;86.70;;;;;;5027731;28;20083;-68
2023/02/04 00:19:52;;;;;;;0.50;0.50;;;9.10;86.80;;;;;;5023550;28;20037;-67
2023/02/04 00:22:19;;;;;;;1.38;0.90;;;9.10;86.80;;;;;;5028458;28;20022;-67
2023/02/04 00:24:48;;;;;;;2.67;0.90;;;9.10;86.80;;;;;;5028194;28;20573;-68
2023/02/04 00:27:14;;;;;;;0.73;0.65;;;9.20;86.80;;;;;;5024709;28;20100;-67
2023/02/04 00:29:40;;;;;;;1.02;0.70;;;9.20;86.80;;;;;;5026980;28;20571;-68
2023/02/04 00:32:05;;;;;;;0.80;0.80;;;9.20;86.70;;;;;;5027871;28;20056;-67
2023/02/04 00:34:31;;;;;;;2.53;0.80;;;9.20;86.70;;;;;;5029157;28;20059;-67
2023/02/04 00:36:56;;;;;;;1.08;0.50;;;9.10;86.70;;;;;;5027422;28;20028;-68
2023/02/04 00:39:22;;;;;;;2.10;0.82;;;9.10;86.80;;;;;;5027399;28;20021;-68
2023/02/04 00:41:47;;;;;;;2.15;0.85;;;9.10;86.80;;;;;;5022361;28;20052;-67
2023/02/04 00:44:13;;;;;;;2.05;0.70;;;9.10;86.90;;;;;;5027554;28;20028;-68
2023/02/04 00:46:42;;;;;;;1.98;0.80;;;9.10;86.80;;;;;;5026591;28;20028;-68
2023/02/04 00:49:09;;;;;;;3.95;0.75;;;9.10;86.90;;;;;;5026108;28;20487;-68
2023/02/04 00:51:37;;;;;;;0.60;0.60;;;9.10;86.90;;;;;;5023775;28;20025;-68
2023/02/04 00:54:03;;;;;;;1.50;0.68;;;9.10;86.90;;;;;;5028112;28;20033;-68
2023/02/04 00:56:28;;;;;;;2.72;0.60;;;9.10;86.90;;;;;;5028349;28;20083;-68
2023/02/04 00:58:54;;;;;;;2.03;0.60;;;9.10;86.90;;;;;;5028711;28;20022;-68
2023/02/04 01:01:19;;;;;;;3.20;0.80;;;9.10;86.90;;;;;;5024607;28;20029;-68
2023/02/04 01:03:45;;;;;;;1.75;0.73;;;9.10;86.90;;;;;;5029438;28;20112;-68
2023/02/04 01:06:10;;;;;;;0.98;0.70;;;9.10;86.90;;;;;;5027023;28;20033;-67
2023/02/04 01:08:36;;;;;;;1.73;0.60;;;9.10;86.90;;;;;;5028792;28;20480;-68
2023/02/04 01:11:02;;;;;;;1.15;0.60;;;9.10;86.90;;;;;;5024743;28;20022;-69
2023/02/04 01:13:27;;;;;;;0.95;0.77;;;9.10;86.90;;;;;;5025111;28;20025;-68
2023/02/04 01:15:53;;;;;;;2.95;0.95;;;9.00;86.80;;;;;;5030025;28;20022;-68
2023/02/04 01:18:18;;;;;;;0.85;0.57;;;9.00;86.90;;;;;;5026729;28;20399;-68
2023/02/04 01:20:44;;;;;;;1.33;0.70;;;9.00;87.10;;;;;;5025377;28;20479;-68
2023/02/04 01:23:09;;;;;;;2.53;0.73;;;9.00;87.10;;;;;;5030442;28;20036;-68
2023/02/04 01:25:35;;;;;;;3.47;0.90;;;9.00;87.20;;;;;;5028107;28;20474;-68
2023/02/04 01:28:01;;;;;;;0.70;0.70;;;8.90;87.10;;;;;;5030501;28;20018;-68
2023/02/04 01:30:26;;;;;;;0.50;0.50;;;8.90;87.20;;;;;;5028794;28;20673;-68
2023/02/04 01:32:52;;;;;;;0.90;0.70;;;8.90;87.30;;;;;;5035807;28;20025;-68
2023/02/04 01:35:17;;;;;;;1.08;0.63;;;8.90;87.30;;;;;;5028809;28;20103;-68
2023/02/04 01:37:43;;;;;;;0.60;0.60;;;8.90;87.30;;;;;;5030313;28;20044;-68
2023/02/04 01:40:10;;;;;;;0.65;0.65;;;8.80;87.30;;;;;;5027947;28;20026;-68
2023/02/04 01:42:35;;;;;;;1.50;0.70;;;8.80;87.40;;;;;;5029392;28;20044;-68
2023/02/04 01:45:05;;;;;;;0.63;0.63;;;8.80;87.40;;;;;;5032618;28;20021;-69
2023/02/04 01:47:31;;;;;;;1.02;0.80;;;8.80;87.50;;;;;;5030545;28;20033;-68
2023/02/04 01:49:57;;;;;;;0.70;0.70;;;8.80;87.50;;;;;;5026893;28;20033;-69
2023/02/04 01:52:23;;;;;;;1.88;0.70;;;8.80;87.50;;;;;;5030598;28;20032;-69
2023/02/04 01:54:49;;;;;;;0.65;0.60;;;8.70;87.40;;;;;;5030604;28;20033;-68
2023/02/04 01:57:15;;;;;;;2.08;0.80;;;8.70;87.50;;;;;;5033715;28;20021;-69
2023/02/04 01:59:45;;;;;;;1.45;0.60;;;8.60;87.50;;;;;;5027906;28;20033;-69
2023/02/04 02:02:40;;;;;;;3.45;0.75;;;8.60;87.50;;;;;;5031774;28;20036;-68
2023/02/04 02:05:09;;;;;;;1.85;0.70;;;8.60;87.60;;;;;;5029821;28;20731;-69
2023/02/04 02:07:35;;;;;;;1.38;0.88;;;8.60;87.50;;;;;;5029042;28;20068;-68
2023/02/04 02:10:02;;;;;;;0.52;0.52;;;8.60;87.60;;;;;;5030904;28;20045;-69
2023/02/04 02:12:28;;;;;;;2.00;0.68;;;8.60;87.50;;;;;;5028920;28;20059;-68
2023/02/04 02:14:54;;;;;;;1.48;1.05;;;8.60;87.50;;;;;;5029687;28;20515;-69
2023/02/04 02:17:19;;;;;;;2.65;0.68;;;8.60;87.50;;;;;;5028956;28;20040;-69
2023/02/04 02:19:45;;;;;;;2.13;0.68;;;8.50;87.60;;;;;;5026969;28;20033;-69
2023/02/04 02:22:24;;;;;;;0.88;0.70;;;8.50;87.50;;;;;;5028749;28;20041;-68
2023/02/04 02:24:49;;;;;;;2.83;1.42;;;8.50;87.70;;;;;;5027757;28;20029;-69
2023/02/04 02:27:15;;;;;;;1.83;0.80;;;8.50;87.60;;;;;;5030289;28;20748;-68
2023/02/04 02:29:41;;;;;;;0.60;0.60;;;8.50;87.70;;;;;;5029350;28;20424;-68
2023/02/04 02:32:09;;;;;;;0.77;0.63;;;8.50;87.70;;;;;;5030855;28;20068;-68
2023/02/04 02:34:36;;;;;;;0.50;0.50;;;8.40;87.70;;;;;;5041045;28;20074;-69
2023/02/04 02:37:02;;;;;;;0.60;0.60;;;8.40;87.90;;;;;;5029653;28;20036;-69
2023/02/04 02:39:28;;;;;;;1.85;0.90;;;8.40;88.00;;;;;;5030124;28;20066;-69
2023/02/04 02:41:55;;;;;;;2.55;0.88;;;8.40;88.00;;;;;;5029711;28;20017;-69
2023/02/04 02:44:21;;;;;;;2.05;0.80;;;8.30;88.10;;;;;;5036233;28;20021;-70
2023/02/04 02:46:47;;;;;;;1.55;0.50;;;8.30;88.10;;;;;;5031913;28;20053;-70
2023/02/04 02:49:16;;;;;;;0.68;0.68;;;8.30;88.00;;;;;;5026244;28;20659;-69
2023/02/04 02:51:42;;;;;;;0.50;0.50;;;8.30;88.10;;;;;;5030443;28;20468;-69
2023/02/04 02:54:20;;;;;;;2.75;0.73;;;8.20;88.10;;;;;;5030479;28;20049;-69
2023/02/04 02:56:45;;;;;;;0.60;0.60;;;8.30;88.20;;;;;;5030370;28;20032;-68
2023/02/04 02:59:16;;;;;;;1.30;0.68;;;8.20;88.30;;;;;;5029211;28;20029;-69
2023/02/04 03:01:42;;;;;;;0.95;0.77;;;8.20;88.40;;;;;;5030745;28;20043;-68
2023/02/04 03:04:09;;;;;;;1.63;0.60;;;8.10;88.50;;;;;;5037307;28;20033;-68
2023/02/04 03:06:35;;;;;;;1.08;0.60;;;8.00;88.60;;;;;;5029762;28;20022;-67
2023/02/04 03:09:01;;;;;;;1.95;0.70;;;8.00;88.70;;;;;;5029902;28;20032;-68
2023/02/04 03:11:28;;;;;;;0.90;0.73;;;8.00;88.70;;;;;;5030393;28;20029;-67
2023/02/04 03:13:55;;;;;;;0.70;0.70;;;8.00;88.70;;;;;;5030793;28;20029;-67
2023/02/04 03:16:21;;;;;;;2.35;0.80;;;8.00;88.70;;;;;;5028935;28;20029;-67
2023/02/04 03:18:47;;;;;;;1.30;0.80;;;8.00;88.40;;;;;;5030048;28;20045;-67
2023/02/04 03:21:13;;;;;;;1.55;0.70;;;7.90;88.50;;;;;;5030398;28;20045;-67
2023/02/04 03:23:39;;;;;;;0.63;0.63;;;7.90;88.70;;;;;;5030137;28;20387;-67
2023/02/04 03:26:05;;;;;;;0.90;0.57;;;7.90;88.70;;;;;;5030287;28;20033;-68
2023/02/04 03:28:30;;;;;;;0.55;0.52;;;7.90;89.10;;;;;;5029715;28;20025;-68
2023/02/04 03:30:56;;;;;;;0.55;0.55;;;7.90;89.10;;;;;;5029065;28;20064;-67
2023/02/04 03:33:25;;;;;;;0.88;0.70;;;7.80;88.40;;;;;;5026923;28;20508;-67
2023/02/04 03:35:51;;;;;;;1.15;0.77;;;7.80;88.40;;;;;;5027517;28;20026;-68
2023/02/04 03:38:17;;;;;;;1.05;0.60;;;7.80;88.30;;;;;;5028800;28;20095;-68
2023/02/04 03:40:43;;;;;;;2.17;0.70;;;7.80;88.40;;;;;;5029603;28;20424;-68
2023/02/04 03:43:09;;;;;;;0.70;0.70;;;7.80;88.40;;;;;;5029230;28;20029;-70
2023/02/04 03:45:34;;;;;;;1.90;0.60;;;7.80;88.40;;;;;;5029525;28;20032;-69
2023/02/04 03:48:00;;;;;;;1.38;0.63;;;7.70;88.30;;;;;;5027697;28;20377;-68
2023/02/04 03:50:25;;;;;;;2.95;1.05;;;7.70;88.50;;;;;;5015925;28;20058;-69
2023/02/04 03:52:52;;;;;;;0.77;0.70;;;7.70;88.60;;;;;;5027069;28;20052;-69
2023/02/04 03:55:18;;;;;;;3.72;0.90;;;7.70;88.60;;;;;;5027373;28;20026;-69
2023/02/04 03:57:44;;;;;;;1.75;0.60;;;7.70;88.60;;;;;;5027337;28;20059;-69
2023/02/04 04:00:10;;;;;;;1.50;0.63;;;7.60;88.70;;;;;;5028513;28;20025;-69
2023/02/04 04:02:36;;;;;;;1.77;0.65;;;7.60;88.70;;;;;;5028560;28;20340;-69
2023/02/04 04:05:01;;;;;;;1.63;0.65;;;7.50;88.70;;;;;;5029093;28;20030;-68
2023/02/04 04:07:27;;;;;;;3.55;1.25;;;7.50;88.70;;;;;;5027741;28;20037;-70
2023/02/04 04:09:52;;;;;;;1.65;0.50;;;7.50;88.70;;;;;;5027836;28;20396;-69
2023/02/04 04:12:18;;;;;;;1.80;0.73;;;7.50;88.70;;;;;;5028725;28;20013;-69
2023/02/04 04:14:43;;;;;;;0.80;0.70;;;7.50;88.80;;;;;;5028717;28;20627;-69
2023/02/04 04:17:09;;;;;;;1.65;0.80;;;7.40;88.80;;;;;;5027096;28;20020;-69
2023/02/04 04:19:35;;;;;;;2.25;0.70;;;7.40;88.80;;;;;;5026949;28;20053;-69
2023/02/04 04:22:00;;;;;;;1.33;0.70;;;7.40;88.80;;;;;;5028890;28;20488;-69
2023/02/04 04:24:26;;;;;;;0.55;0.50;;;7.30;88.90;;;;;;5028065;28;20026;-70
2023/02/04 04:26:51;;;;;;;0.68;0.60;;;7.40;89.00;;;;;;5028336;28;20116;-69
2023/02/04 04:29:17;;;;;;;0.60;0.60;;;7.40;89.00;;;;;;5028045;28;20033;-69
2023/02/04 04:31:43;;;;;;;1.85;0.93;;;7.40;89.00;;;;;;5013439;28;20028;-69
2023/02/04 04:34:09;;;;;;;0.75;0.70;;;7.30;89.60;;;;;;5028229;28;20026;-69
2023/02/04 04:36:35;;;;;;;2.25;0.90;;;7.30;89.00;;;;;;5027109;28;20453;-68
2023/02/04 04:39:00;;;;;;;1.70;0.75;;;7.40;89.10;;;;;;5028394;28;20030;-68
2023/02/04 04:41:26;;;;;;;1.25;0.60;;;7.40;88.90;;;;;;5028883;28;20053;-68
2023/02/04 04:43:52;;;;;;;1.10;0.75;;;7.40;89.00;;;;;;5027504;28;20064;-68
2023/02/04 04:46:17;;;;;;;2.10;0.70;;;7.40;89.10;;;;;;5028255;28;20060;-68
2023/02/04 04:48:43;;;;;;;3.42;0.68;;;7.40;89.20;;;;;;5028082;28;20030;-68
2023/02/04 04:51:08;;;;;;;1.17;0.70;;;7.40;89.10;;;;;;5026420;28;20025;-69
2023/02/04 04:53:34;;;;;;;1.85;0.98;;;7.40;89.10;;;;;;5027545;28;20037;-69
2023/02/04 04:55:59;;;;;;;2.53;0.60;;;7.40;89.10;;;;;;5028485;28;20025;-69
2023/02/04 04:58:25;;;;;;;2.00;0.93;;;7.40;89.00;;;;;;5027866;28;20083;-69
2023/02/04 05:00:50;;;;;;;1.25;0.68;;;7.40;89.00;;;;;;5027304;28;20037;-68
2023/02/04 05:03:16;;;;;;;1.27;0.60;;;7.40;89.10;;;;;;5028366;28;20036;-68
2023/02/04 05:05:43;;;;;;;4.78;0.73;;;7.40;89.20;;;;;;5027613;28;20033;-68
2023/02/04 05:08:11;;;;;;;1.15;0.63;;;7.30;89.20;;;;;;5028503;28;20025;-68
2023/02/04 05:10:40;;;;;;;2.38;0.63;;;7.30;89.30;;;;;;5027738;28;20025;-68
2023/02/04 05:13:06;;;;;;;0.90;0.70;;;7.40;89.30;;;;;;5028036;28;20033;-68
2023/02/04 05:15:32;;;;;;;3.70;0.90;;;7.40;89.30;;;;;;5027908;28;20034;-69
2023/02/04 05:17:58;;;;;;;0.70;0.70;;;7.40;89.30;;;;;;5027875;28;20439;-69
2023/02/04 05:20:24;;;;;;;2.97;0.88;;;7.40;89.20;;;;;;5028088;28;20115;-68
2023/02/04 05:22:50;;;;;;;2.05;0.60;;;7.40;89.20;;;;;;5027807;28;20052;-68
2023/02/04 05:25:15;;;;;;;2.53;0.82;;;7.40;89.10;;;;;;5027815;28;20030;-68
2023/02/04 05:27:42;;;;;;;1.13;0.68;;;7.40;89.20;;;;;;5026795;28;20029;-68
2023/02/04 05:30:12;;;;;;;3.22;1.10;;;7.40;89.30;;;;;;5027844;28;20026;-68
2023/02/04 05:32:38;;;;;;;1.90;0.70;;;7.50;89.20;;;;;;5027451;28;20036;-69
2023/02/04 05:35:04;;;;;;;2.75;0.60;;;7.40;89.20;;;;;;5026917;28;20038;-69
2023/02/04 05:37:30;;;;;;;0.98;0.68;;;7.40;89.40;;;;;;5027982;28;20056;-69
2023/02/04 05:39:56;;;;;;;3.50;0.80;;;7.40;89.40;;;;;;5027679;28;20504;-69
2023/02/04 05:42:22;;;;;;;0.68;0.65;;;7.50;89.40;;;;;;5028301;28;20025;-68
2023/02/04 05:44:48;;;;;;;0.73;0.73;;;7.50;89.30;;;;;;5027654;28;20028;-69
2023/02/04 05:47:14;;;;;;;1.83;0.60;;;7.50;89.20;;;;;;5027276;28;20484;-69
2023/02/04 05:49:39;;;;;;;0.75;0.75;;;7.50;89.10;;;;;;5028190;28;20028;-69
2023/02/04 05:52:05;;;;;;;1.90;0.65;;;7.60;89.10;;;;;;5028144;28;20387;-69
2023/02/04 05:54:31;;;;;;;1.42;0.70;;;7.60;89.10;;;;;;5028429;28;20037;-68
2023/02/04 05:56:56;;;;;;;0.88;0.60;;;7.60;89.00;;;;;;5022648;28;20017;-68
2023/02/04 05:59:22;;;;;;;1.10;0.80;;;7.60;88.90;;;;;;5028129;28;20029;-68
2023/02/04 06:01:47;;;;;;;2.13;0.70;;;7.60;88.90;;;;;;5027264;28;20053;-69
2023/02/04 06:04:15;;;;;;;0.60;0.60;;;7.60;89.00;;;;;;5027164;28;20109;-69
2023/02/04 06:06:41;;;;;;;1.85;0.75;;;7.60;89.00;;;;;;5027412;28;20612;-69
2023/02/04 06:09:07;;;;;;;0.60;0.50;;;7.60;88.90;;;;;;5026194;28;20405;-69
2023/02/04 06:11:32;;;;;;;6.40;1.00;;;7.60;89.00;;;;;;5026941;28;20017;-69
2023/02/04 06:13:58;;;;;;;1.55;0.70;;;7.60;89.10;;;;;;5027430;28;20068;-68
2023/02/04 06:16:24;;;;;;;1.00;0.90;;;7.70;89.10;;;;;;5029810;28;20029;-69
2023/02/04 06:18:49;;;;;;;0.60;0.60;;;7.70;89.00;;;;;;5030053;28;20063;-69
2023/02/04 06:21:15;;;;;;;2.20;0.70;;;7.70;88.90;;;;;;5031335;28;20049;-69
2023/02/04 06:23:40;;;;;;;0.82;0.65;;;7.70;88.90;;;;;;5029861;28;20048;-69
2023/02/04 06:26:06;;;;;;;0.98;0.60;;;7.70;88.90;;;;;;5031415;28;20732;-69
2023/02/04 06:28:31;;;;;;;4.28;0.80;;;7.70;88.80;;;;;;5030300;28;20029;-70
2023/02/04 06:30:57;;;;;;;1.77;0.50;;;7.70;88.70;;;;;;5029238;28;20083;-69
2023/02/04 06:33:23;;;;;;;1.05;0.70;;;7.80;88.80;;;;;;5027019;28;20038;-69
2023/02/04 06:35:49;;;;;;;2.72;0.95;;;7.80;88.60;;;;;;5030553;28;20029;-69
2023/02/04 06:38:14;;;;;;;0.70;0.70;;;7.70;88.60;;;;;;5029783;28;20029;-69
2023/02/04 06:40:40;;;;;;;1.98;0.60;;;7.80;88.70;;;;;;5030749;28;20538;-69
2023/02/04 06:43:05;;;;;;;1.65;0.68;;;7.80;88.80;;;;;;5028521;28;20025;-69
2023/02/04 06:45:31;;;;;;;2.00;0.70;;;7.80;88.80;;;;;;5028842;28;20583;-69
2023/02/04 06:47:57;;;;;;;0.80;0.80;;;7.80;88.80;;;;;;5030624;28;20032;-68
2023/02/04 06:50:22;;;;;;;0.68;0.60;;;7.80;88.80;;;;;;5031264;28;20098;-69
2023/02/04 06:52:48;;;;;;;2.95;0.73;;;7.80;88.70;;;;;;5032454;28;20021;-69
2023/02/04 06:55:15;;;;;;;2.05;0.82;;;7.90;88.70;;;;;;5027046;28;20033;-69
2023/02/04 06:57:41;;;;;;;1.70;0.70;;;7.90;88.60;;;;;;5026067;28;20053;-68
2023/02/04 07:00:09;;;;;;;1.75;0.85;;;7.90;88.50;;;;;;5030573;28;20472;-69
2023/02/04 07:02:36;;;;;;;3.38;0.70;;;7.90;88.60;;;;;;5028588;28;20195;-68
2023/02/04 07:05:02;;;;;;;2.75;0.70;;;7.90;88.60;;;;;;5024817;28;20069;-68
2023/02/04 07:07:28;;;;;;;1.58;0.80;;;7.90;88.70;;;;;;5030355;28;20030;-68
2023/02/04 07:09:54;;;;;;;1.13;0.80;;;7.80;88.70;;;;;;5038380;28;20392;-71
2023/02/04 07:12:19;;;;;;;2.63;0.90;;;7.80;88.80;;;;;;5029693;28;20256;-69
2023/02/04 07:14:45;;;;;;;1.77;0.80;;;7.80;88.90;;;;;;5032847;28;20044;-69
2023/02/04 07:17:10;;;;;;;3.00;0.80;;;7.80;88.90;;;;;;5030757;28;20037;-68
2023/02/04 07:19:36;;;;;;;0.60;0.60;;;7.80;88.90;;;;;;5028523;28;20029;-68
2023/02/04 07:22:02;;;;;;;1.38;0.68;;;7.80;88.90;;;;;;5025491;28;20029;-69
2023/02/04 07:24:28;;;;;;;0.85;0.50;;;7.80;89.00;;;;;;5026498;28;20021;-68
2023/02/04 07:26:54;;;;;;;1.98;0.65;;;7.80;89.00;;;;;;5021882;28;20025;-69
2023/02/04 07:29:19;;;;;;;4.38;1.45;;;7.80;89.10;;;;;;5021337;28;20184;-68
2023/02/04 07:31:45;;;;;;;1.77;0.50;;;7.80;89.10;;;;;;5023743;28;20022;-69
2023/02/04 07:34:12;;;;;;;1.63;0.63;;;7.80;89.10;;;;;;5023414;28;20049;-69
2023/02/04 07:36:38;;;;;;;0.93;0.75;;;7.80;89.10;;;;;;5024594;28;20377;-69
2023/02/04 07:39:04;;;;;;;1.48;0.60;;;7.80;89.20;;;;;;5036524;28;20023;-69
2023/02/04 07:41:29;;;;;;;3.30;0.80;;;7.90;89.10;;;;;;5034818;28;20026;-68
2023/02/04 07:43:55;;;;;;;0.50;0.50;;;7.90;89.10;;;;;;5027209;28;20052;-69
2023/02/04 07:46:20;;;;;;;0.60;0.60;;;7.90;89.00;;;;;;5029978;28;20124;-69
2023/02/04 07:48:46;;;;;;;3.53;0.85;;;7.90;89.00;;;;;;5029651;28;20018;-69
2023/02/04 07:51:12;;;;;;;2.95;0.63;;;7.90;89.00;;;;;;5030737;28;20029;-69
2023/02/04 07:53:37;;;;;;;2.00;0.90;;;8.00;89.10;;;;;;5028445;28;20439;-69
2023/02/04 07:56:03;;;;;;;2.40;0.70;;;8.00;89.10;;;;;;5030805;28;20045;-69
2023/02/04 07:58:29;;;;;;;2.92;0.70;;;8.00;89.10;;;;;;5029336;28;20033;-69
2023/02/04 08:00:54;;;;;;;1.23;0.77;;;8.00;89.00;;;;;;5028419;28;20025;-69
2023/02/04 08:03:20;;;;;;;2.80;0.77;;;8.10;89.00;;;;;;5030562;28;20036;-69
2023/02/04 08:05:45;;;;;;;1.73;1.00;;;8.10;88.90;;;;;;5030257;28;20029;-69
2023/02/04 08:08:11;;;;;;;2.13;0.80;;;8.10;88.80;;;;;;5030059;28;20026;-69
2023/02/04 08:10:36;;;;;;;1.95;0.85;;;8.10;88.80;;;;;;5030029;28;20495;-68
2023/02/04 08:13:02;;;;;;;1.05;0.65;;;8.20;88.80;;;;;;5030009;28;20756;-69
2023/02/04 08:15:28;;;;;;;0.57;0.57;;;8.20;88.80;;;;;;5030161;28;20026;-69
2023/02/04 08:17:53;;;;;;;0.60;0.60;;;8.20;88.80;;;;;;5029125;28;20038;-68
2023/02/04 08:20:19;;;;;;;1.55;0.73;;;8.30;88.80;;;;;;5029463;28;20059;-69
2023/02/04 08:22:44;;;;;;;2.67;1.05;;;8.30;88.60;;;;;;5039599;28;20031;-68
2023/02/04 08:25:11;;;;;;;2.58;1.17;;;8.30;88.50;;;;;;5031514;28;20064;-69
2023/02/04 08:27:37;;;;;;;1.20;0.73;;;8.30;88.50;;;;;;5029876;28;20030;-69
2023/02/04 08:30:04;;;;;;;1.80;0.98;;;8.40;88.50;;;;;;5029176;28;20025;-69
2023/02/04 08:32:30;;;;;;;1.52;0.77;;;8.40;88.60;;;;;;5030407;28;20104;-69
2023/02/04 08:34:58;;;;;;;1.48;0.90;;;8.50;88.50;;;;;;5029501;28;20105;-69
2023/02/04 08:37:24;;;;;;;1.58;1.25;;;8.50;88.40;;;;;;5029185;28;20021;-69
2023/02/04 08:39:50;;;;;;;2.28;0.82;;;8.60;88.30;;;;;;5027537;28;20033;-68
2023/02/04 08:42:15;;;;;;;1.77;0.85;;;8.60;88.20;;;;;;5024612;28;20029;-69
2023/02/04 08:44:42;;;;;;;3.15;0.95;;;8.60;88.10;;;;;;5024337;28;20036;-69
2023/02/04 08:47:08;;;;;;;1.10;0.70;;;8.70;88.20;;;;;;5029390;28;20041;-69
2023/02/04 08:49:35;;;;;;;2.17;1.10;;;8.70;88.10;;;;;;5030065;28;20148;-69
2023/02/04 08:52:03;;;;;;;5.35;1.35;;;8.70;88.10;;;;;;5026687;28;20495;-69
2023/02/04 08:54:28;;;;;;;0.75;0.73;;;8.80;88.00;;;;;;5024835;28;20119;-69
2023/02/04 08:56:54;;;;;;;4.30;1.00;;;8.80;88.70;;;;;;5027782;28;21142;-68
2023/02/04 08:59:21;;;;;;;2.15;0.88;;;8.80;88.10;;;;;;5030203;28;20048;-68
2023/02/04 09:01:48;;;;;;;1.27;1.00;;;8.90;88.10;;;;;;5026457;28;20029;-68
2023/02/04 09:04:14;;;;;;;2.03;0.60;;;8.90;87.90;;;;;;5029882;28;20025;-67
2023/02/04 09:06:39;;;;;;;0.88;0.70;;;9.00;87.90;;;;;;5027817;28;20029;-67
2023/02/04 09:09:05;;;;;;;1.42;0.60;;;9.00;87.90;;;;;;5028606;28;20017;-67
2023/02/04 09:11:30;;;;;;;2.00;0.75;;;9.10;87.90;;;;;;5030564;28;20025;-67
2023/02/04 09:13:56;;;;;;;1.80;0.98;;;9.20;87.80;;;;;;5024115;28;20607;-69
2023/02/04 09:16:22;;;;;;;2.22;0.80;;;9.20;87.60;;;;;;5023985;28;20022;-68
2023/02/04 09:18:47;;;;;;;2.78;0.93;;;9.30;87.60;;;;;;5027651;28;20037;-68
2023/02/04 09:21:13;;;;;;;1.40;0.93;;;9.30;87.50;;;;;;5026550;28;20029;-68
2023/02/04 09:23:38;;;;;;;3.03;1.30;;;9.40;87.40;;;;;;5028818;28;20021;-68
2023/02/04 09:26:05;;;;;;;4.05;1.00;;;9.40;87.20;;;;;;5023041;28;20064;-68
2023/02/04 09:28:31;;;;;;;3.13;1.30;;;9.40;87.30;;;;;;5025375;28;20034;-68
2023/02/04 09:30:57;;;;;;;1.60;0.65;;;9.40;87.40;;;;;;5025914;28;20100;-68
2023/02/04 09:33:22;;;;;;;2.05;1.08;;;9.50;87.40;;;;;;5026198;28;20104;-68
2023/02/04 09:35:48;;;;;;;1.85;0.80;;;9.50;87.30;;;;;;5022089;28;20499;-68
2023/02/04 09:38:14;;;;;;;3.17;0.80;;;9.50;87.30;;;;;;5027368;28;20030;-68
2023/02/04 09:40:43;;;;;;;1.88;0.77;;;9.50;87.30;;;;;;5026253;28;20841;-68
2023/02/04 09:43:13;;;;;;;0.95;0.70;;;9.60;87.30;;;;;;5028802;28;20025;-69
2023/02/04 09:45:39;;;;;;;3.35;0.95;;;9.60;87.30;;;;;;5023909;28;20028;-68
2023/02/04 09:48:06;;;;;;;4.63;0.90;;;9.60;87.20;;;;;;5023155;28;20041;-68
2023/02/04 09:50:32;;;;;;;2.35;0.70;;;9.60;87.10;;;;;;5026802;28;20109;-68
2023/02/04 09:53:01;;;;;;;1.77;0.85;;;9.60;87.10;;;;;;5031312;28;20488;-68
2023/02/04 09:55:34;;;;;;;1.63;0.50;;;9.60;87.30;;;;;;5025993;28;20022;-68
2023/02/04 09:58:00;;;;;;;0.70;0.70;;;9.70;87.30;;;;;;5031620;28;20026;-69
2023/02/04 10:00:28;;;;;;;3.40;0.70;;;9.70;87.20;;;;;;5026933;28;20025;-69
2023/02/04 10:02:56;;;;;;;2.00;0.52;;;9.80;87.20;;;;;;5031476;28;20052;-68
2023/02/04 10:05:28;;;;;;;2.90;0.82;;;9.90;86.90;;;;;;5031057;28;20093;-69
2023/02/04 10:07:53;;;;;;;1.42;0.70;;;9.90;86.80;;;;;;5029752;28;20044;-68
2023/02/04 10:10:24;;;;;;;1.20;0.70;;;9.90;86.80;;;;;;5030183;28;20017;-69
2023/02/04 10:12:51;;;;;;;2.50;0.85;;;10.00;86.90;;;;;;5032456;28;20484;-68
2023/02/04 10:15:18;;;;;;;0.93;0.60;;;10.00;86.80;;;;;;5029778;28;20017;-69
2023/02/04 10:17:50;;;;;;;1.75;0.63;;;10.00;86.60;;;;;;5031347;28;20068;-69
2023/02/04 10:20:18;;;;;;;3.50;0.70;;;10.10;86.60;;;;;;5032667;28;20030;-69
2023/02/04 10:22:45;;;;;;;3.28;0.90;;;10.20;86.60;;;;;;5031394;28;20029;-69
2023/02/04 10:25:13;;;;;;;2.38;0.88;;;10.20;86.30;;;;;;5030736;28;20496;-68
2023/02/04 10:27:58;;;;;;;4.47;1.15;;;10.20;86.50;;;;;;5030598;28;20032;-69
2023/02/04 10:30:38;;;;;;;2.78;0.73;;;10.30;86.50;;;;;;5033170;28;20018;-69
2023/02/04 10:33:25;;;;;;;4.63;0.85;;;10.30;86.40;;;;;;5029295;28;20025;-69
2023/02/04 10:35:53;;;;;;;2.10;0.88;;;10.20;86.20;;;;;;5028916;28;20026;-69
2023/02/04 10:38:19;;;;;;;0.90;0.70;;;10.20;86.50;;;;;;5030321;28;20433;-69
2023/02/04 10:40:46;;;;;;;6.28;0.93;;;10.20;86.50;;;;;;5031502;28;20093;-69
2023/02/04 10:43:25;;;;;;;1.15;0.80;;;10.30;86.70;;;;;;5035315;28;20063;-69
2023/02/04 10:46:00;;;;;;;0.82;0.80;;;10.40;86.70;;;;;;5033602;28;20025;-69
2023/02/04 10:48:26;;;;;;;3.45;1.13;;;10.50;86.50;;;;;;5035006;28;20593;-68
2023/02/04 10:50:52;;;;;;;2.83;1.15;;;10.60;86.30;;;;;;5031075;28;20032;-69
2023/02/04 10:56:16;;;;;;;4.45;1.30;;;10.70;86.30;;;;;;5030822;28;20041;-69
2023/02/04 10:58:42;;;;;;;5.13;1.33;;;10.70;85.90;;;;;;5030934;28;20022;-69
2023/02/04 11:01:12;;;;;;;1.13;0.60;;;10.80;85.80;;;;;;5033267;28;20036;-69
2023/02/04 11:03:39;;;;;;;2.15;0.73;;;10.90;85.50;;;;;;5031410;28;20037;-70
2023/02/04 11:06:16;;;;;;;4.63;1.10;;;11.00;85.30;;;;;;5030594;28;20022;-70
2023/02/04 11:08:42;;;;;;;1.40;0.70;;;11.00;85.10;;;;;;5029346;28;20097;-69
2023/02/04 11:11:17;;;;;;;3.10;0.88;;;11.00;85.60;;;;;;5030169;28;20036;-69
2023/02/04 11:13:50;;;;;;;1.30;0.68;;;11.10;85.10;;;;;;5029870;28;20472;-69
2023/02/04 11:16:31;;;;;;;2.15;0.50;;;11.10;85.00;;;;;;5028183;28;20025;-70
2023/02/04 11:19:05;;;;;;;2.28;0.75;;;11.20;85.00;;;;;;5029150;28;20025;-70
2023/02/04 11:21:31;;;;;;;0.80;0.52;;;11.10;84.70;;;;;;5029341;28;20044;-72
2023/02/04 11:24:05;;;;;;;2.50;0.95;;;11.20;84.80;;;;;;5028103;28;20029;-70
2023/02/04 11:26:33;;;;;;;2.30;0.73;;;11.20;84.80;;;;;;5027828;28;20049;-70
2023/02/04 11:28:59;;;;;;;5.25;1.15;;;11.20;84.60;;;;;;5026605;28;20029;-70
2023/02/04 11:31:25;;;;;;;1.15;0.57;;;11.30;84.60;;;;;;5024981;28;20541;-70
2023/02/04 11:34:02;;;;;;;2.53;0.88;;;11.30;84.50;;;;;;5028925;28;20112;-69
2023/02/04 11:36:28;;;;;;;1.83;0.77;;;11.30;84.50;;;;;;5029525;28;20223;-69
2023/02/04 11:38:54;;;;;;;0.57;0.57;;;11.40;84.40;;;;;;5028146;28;20048;-70
2023/02/04 11:41:29;;;;;;;3.00;0.80;;;11.40;84.30;;;;;;5025324;28;20119;-70
2023/02/04 11:43:56;;;;;;;1.00;0.75;;;11.50;84.20;;;;;;5024334;28;20045;-69
2023/02/04 11:46:24;;;;;;;1.65;0.95;;;11.50;84.00;;;;;;5026661;28;20496;-70
2023/02/04 11:48:54;;;;;;;4.57;0.82;;;11.50;83.70;;;;;;5028527;28;20029;-70
2023/02/04 11:51:26;;;;;;;3.75;1.02;;;11.40;83.60;;;;;;5027301;28;20034;-70
2023/02/04 11:53:52;;;;;;;5.72;1.00;;;11.50;84.00;;;;;;5024539;28;20094;-70
2023/02/04 11:56:20;;;;;;;3.13;1.05;;;11.50;83.90;;;;;;5026022;28;20596;-72
2023/02/04 11:58:49;;;;;;;2.55;1.52;;;11.60;83.90;;;;;;5027478;28;20030;-69
2023/02/04 12:01:20;;;;;;;5.32;0.95;;;11.60;83.60;;;;;;5032136;28;20099;-69
2023/02/04 12:03:48;;;;;;;2.67;1.15;;;11.60;83.50;;;;;;5026721;28;20033;-70
2023/02/04 12:06:28;;;;;;;1.75;0.65;;;11.60;83.20;;;;;;5026831;28;20108;-70
2023/02/04 12:09:07;;;;;;;0.60;0.60;;;11.60;83.30;;;;;;5026303;28;20029;-69
2023/02/04 12:11:34;;;;;;;1.70;0.60;;;11.70;83.30;;;;;;5031525;28;20009;-70
2023/02/04 12:14:17;;;;;;;1.10;0.73;;;11.70;83.10;;;;;;5024708;28;20433;-70
2023/02/04 12:16:47;;;;;;;2.33;0.80;;;11.60;83.20;;;;;;5025747;28;20025;-69
2023/02/04 12:19:13;;;;;;;1.45;0.60;;;11.50;83.30;;;;;;5027852;28;20033;-70
2023/02/04 12:21:39;;;;;;;0.90;0.73;;;11.40;83.40;;;;;;5029684;28;20350;-70
2023/02/04 12:24:05;;;;;;;2.42;0.70;;;11.50;83.60;;;;;;5025515;28;20045;-69
2023/02/04 12:26:30;;;;;;;3.83;1.10;;;11.50;83.50;;;;;;5028619;28;20075;-69
2023/02/04 12:28:56;;;;;;;3.20;0.95;;;11.40;83.50;;;;;;5026161;28;20049;-68
2023/02/04 12:31:22;;;;;;;1.55;0.70;;;11.40;83.50;;;;;;5026504;28;20025;-68
2023/02/04 12:33:47;;;;;;;1.48;0.80;;;11.40;83.50;;;;;;5028086;28;20025;-69
2023/02/04 12:36:13;;;;;;;0.98;0.80;;;11.40;83.50;;;;;;5026126;28;20033;-68
2023/02/04 12:38:39;;;;;;;3.17;1.25;;;11.30;83.40;;;;;;5025874;28;20048;-68
2023/02/04 12:41:04;;;;;;;2.15;1.33;;;11.30;83.50;;;;;;5027337;28;20105;-68
2023/02/04 12:43:30;;;;;;;3.13;0.60;;;11.40;83.60;;;;;;5025865;28;20453;-69
2023/02/04 12:45:56;;;;;;;1.13;0.60;;;11.40;83.60;;;;;;5024641;28;20448;-69
2023/02/04 12:48:21;;;;;;;0.98;0.60;;;11.50;83.40;;;;;;5027468;28;20030;-68
2023/02/04 12:50:47;;;;;;;0.70;0.47;;;11.50;83.40;;;;;;5024933;28;20032;-69
2023/02/04 12:53:12;;;;;;;2.50;0.70;;;11.70;83.30;;;;;;5026250;28;20033;-69
2023/02/04 12:55:38;;;;;;;4.63;0.98;;;11.80;82.80;;;;;;5023850;28;20100;-69